Time;durP1;ratioP1;P1;durP2;ratioP2;P2;SDS_P1;SDS_P2;PMS_P1;PMS_P2;Temp;Humidity;BMP_temperature;BMP_pressure;BME280_temperature;BME280_humidity;BME280_pressure;Samples;Min_cycle;Max_cycle;Signal;HPM_P1;HPM_P2
2022/10/20 00:00:36;;;;;;;9.85;4.75;;;;;;;5.89;100.00;102153.59;2072723;28;20797;-71
2022/10/20 00:01:43;;;;;;;6.80;4.40;;;;;;;5.90;100.00;102157.16;2071628;28;40602;-71
2022/10/20 00:02:45;;;;;;;11.38;4.70;;;;;;;5.91;100.00;102149.22;2072333;28;36025;-72
2022/10/20 00:03:48;;;;;;;8.70;4.75;;;;;;;5.88;100.00;102151.81;2071840;28;31350;-71
2022/10/20 00:04:49;;;;;;;10.35;4.93;;;;;;;5.92;100.00;102155.41;2072153;28;34189;-70
2022/10/20 00:05:52;;;;;;;10.38;5.00;;;;;;;5.91;100.00;102159.84;2071615;28;31076;-71
2022/10/20 00:06:54;;;;;;;10.70;5.10;;;;;;;5.86;100.00;102150.00;2072702;28;20045;-71
2022/10/20 00:07:55;;;;;;;8.55;4.20;;;;;;;5.83;100.00;102152.59;2079449;28;40186;-71
2022/10/20 00:09:02;;;;;;;9.85;5.22;;;;;;;5.85;100.00;102164.16;2079919;28;30674;-71
2022/10/20 00:10:04;;;;;;;7.38;4.07;;;;;;;5.82;100.00;102148.19;2071395;28;37645;-70
2022/10/20 00:11:08;;;;;;;9.90;4.70;;;;;;;5.81;100.00;102159.66;2072252;28;38594;-71
2022/10/20 00:12:10;;;;;;;12.20;4.57;;;;;;;5.85;100.00;102164.16;2079562;28;28998;-71
2022/10/20 00:13:11;;;;;;;6.90;4.13;;;;;;;5.80;100.00;102157.91;2079234;28;40913;-71
2022/10/20 00:14:13;;;;;;;8.60;4.53;;;;;;;5.81;100.00;102157.00;2071849;28;31713;-71
2022/10/20 00:15:17;;;;;;;10.73;4.70;;;;;;;5.79;100.00;102151.66;2072225;28;35167;-71
2022/10/20 00:16:22;;;;;;;8.07;4.30;;;;;;;5.80;100.00;102150.81;2071235;28;31769;-71
2022/10/20 00:17:23;;;;;;;8.80;4.20;;;;;;;5.83;100.00;102145.56;2072098;28;30437;-71
2022/10/20 00:18:26;;;;;;;8.73;3.90;;;;;;;5.79;100.00;102143.69;2071762;28;39876;-71
2022/10/20 00:19:27;;;;;;;10.43;4.35;;;;;;;5.80;100.00;102142.84;2079701;28;34737;-73
2022/10/20 00:20:29;;;;;;;11.35;4.18;;;;;;;5.76;100.00;102140.09;2078376;28;38395;-71
2022/10/20 00:21:31;;;;;;;7.50;4.30;;;;;;;5.72;100.00;102136.50;2080399;28;20030;-71
2022/10/20 00:22:33;;;;;;;10.00;4.70;;;;;;;5.71;100.00;102138.25;2078837;28;37746;-71
2022/10/20 00:23:35;;;;;;;7.10;4.30;;;;;;;5.73;100.00;102133.88;2079685;28;30180;-71
2022/10/20 00:24:37;;;;;;;8.60;4.22;;;;;;;5.67;100.00;102128.47;2071904;28;32601;-73
2022/10/20 00:25:39;;;;;;;9.07;4.60;;;;;;;5.67;100.00;102136.44;2072125;28;27177;-71
2022/10/20 00:26:41;;;;;;;8.95;4.35;;;;;;;5.69;100.00;102136.47;2080108;28;20041;-71
2022/10/20 00:27:43;;;;;;;10.30;4.10;;;;;;;5.66;100.00;102126.66;2079617;28;27819;-71
2022/10/20 00:28:45;;;;;;;9.65;4.72;;;;;;;5.69;100.00;102132.03;2072352;28;20042;-71
2022/10/20 00:29:50;;;;;;;7.47;4.13;;;;;;;5.73;100.00;102140.94;2079689;28;34173;-71
2022/10/20 00:30:56;;;;;;;6.50;4.10;;;;;;;5.68;100.00;102130.22;2078500;28;37084;-71
2022/10/20 00:31:57;;;;;;;7.78;4.28;;;;;;;5.67;100.00;102128.47;2079830;28;33205;-71
2022/10/20 00:33:00;;;;;;;10.48;4.60;;;;;;;5.69;100.00;102133.81;2070177;28;40964;-71
2022/10/20 00:34:01;;;;;;;11.30;4.47;;;;;;;5.68;100.00;102127.56;2071476;28;32422;-71
2022/10/20 00:35:04;;;;;;;8.98;4.60;;;;;;;5.66;100.00;102121.34;2071711;28;33551;-71
2022/10/20 00:36:11;;;;;;;7.50;4.43;;;;;;;5.62;100.00;102116.84;2071888;28;38652;-71
2022/10/20 00:37:14;;;;;;;10.30;4.32;;;;;;;5.61;100.00;102112.41;2072064;28;27554;-71
2022/10/20 00:38:16;;;;;;;7.90;4.15;;;;;;;5.62;100.00;102108.88;2072191;28;31627;-71
2022/10/20 00:39:22;;;;;;;8.82;4.22;;;;;;;5.59;100.00;102111.50;2072380;28;20085;-71
2022/10/20 00:40:24;;;;;;;9.93;4.50;;;;;;;5.57;100.00;102113.22;2071278;28;33905;-71
2022/10/20 00:41:30;;;;;;;7.55;4.28;;;;;;;5.57;100.00;102105.25;2071532;28;34705;-71
2022/10/20 00:42:32;;;;;;;5.97;4.18;;;;;;;5.57;100.00;102099.94;2072190;28;28020;-71
2022/10/20 00:43:46;;;;;;;8.98;3.60;;;;;;;5.58;100.00;102109.72;2071865;28;32140;-71
2022/10/20 00:44:55;;;;;;;10.82;4.38;;;;;;;5.59;100.00;102111.50;2071650;28;31812;-72
2022/10/20 00:45:57;;;;;;;9.70;3.95;;;;;;;5.57;100.00;102110.56;2071472;28;29519;-72
2022/10/20 00:46:58;;;;;;;7.10;4.13;;;;;;;5.58;100.00;102117.69;2070516;28;41770;-72
2022/10/20 00:48:12;;;;;;;6.43;4.03;;;;;;;5.60;100.00;102109.72;2071919;28;20049;-72
2022/10/20 00:49:24;;;;;;;10.38;3.72;;;;;;;5.56;100.00;102108.78;2079764;28;20026;-72
2022/10/20 00:50:40;;;;;;;10.38;3.92;;;;;;;5.52;100.00;102110.47;2079236;28;39496;-72
2022/10/20 00:51:45;;;;;;;9.73;4.07;;;;;;;5.54;100.00;102106.13;2079273;28;32487;-72
2022/10/20 00:52:52;;;;;;;9.90;4.47;;;;;;;5.54;100.00;102094.56;2077275;28;34510;-72
2022/10/20 00:54:04;;;;;;;8.35;4.60;;;;;;;5.51;100.00;102095.44;2070799;28;34803;-72
2022/10/20 00:55:10;;;;;;;8.18;3.85;;;;;;;5.51;100.00;102092.78;2072145;28;28550;-71
2022/10/20 00:56:13;;;;;;;9.35;3.85;;;;;;;5.50;100.00;102082.13;2079023;28;38756;-72
2022/10/20 00:57:16;;;;;;;8.00;3.92;;;;;;;5.45;100.00;102089.13;2078874;28;33805;-71
2022/10/20 00:58:18;;;;;;;5.90;3.78;;;;;;;5.48;100.00;102084.75;2079005;28;33162;-71
2022/10/20 00:59:24;;;;;;;10.82;4.38;;;;;;;5.51;100.00;102083.91;2078897;28;37016;-72
2022/10/20 01:00:27;;;;;;;7.53;4.50;;;;;;;5.58;100.00;102085.81;2079527;28;31341;-72
2022/10/20 01:01:32;;;;;;;10.80;4.30;;;;;;;5.56;100.00;102082.19;2078488;28;38357;-72
2022/10/20 01:02:35;;;;;;;11.18;4.32;;;;;;;5.52;100.00;102080.38;2071463;28;31210;-72
2022/10/20 01:03:49;;;;;;;11.70;4.55;;;;;;;5.53;100.00;102082.19;2071893;28;29637;-72
2022/10/20 01:04:51;;;;;;;10.15;4.13;;;;;;;5.48;100.00;102084.75;2079537;28;33735;-72
2022/10/20 01:05:52;;;;;;;13.32;4.50;;;;;;;5.47;100.00;102076.75;2079255;28;22566;-71
2022/10/20 01:06:55;;;;;;;7.97;4.10;;;;;;;5.48;100.00;102078.53;2079121;28;33342;-72
2022/10/20 01:07:57;;;;;;;8.55;4.22;;;;;;;5.48;100.00;102083.84;2079812;28;20045;-72
2022/10/20 01:08:59;;;;;;;9.40;4.70;;;;;;;5.49;100.00;102081.22;2078515;28;37314;-72
2022/10/20 01:10:04;;;;;;;9.18;4.22;;;;;;;5.51;100.00;102078.59;2071570;28;31841;-72
2022/10/20 01:11:17;;;;;;;8.48;4.10;;;;;;;5.58;100.00;102077.84;2079345;28;33786;-72
2022/10/20 01:12:34;;;;;;;8.82;4.30;;;;;;;5.58;100.00;102077.84;2076915;28;38924;-72
2022/10/20 01:14:04;;;;;;;7.88;3.90;;;;;;;5.59;100.00;102070.75;2072131;28;36102;-72
2022/10/20 01:15:51;;;;;;;8.32;3.92;;;;;;;5.53;100.00;102066.25;2079453;28;34521;-71
2022/10/20 01:17:10;;;;;;;8.88;3.70;;;;;;;5.49;100.00;102064.38;2071641;28;30170;-72
2022/10/20 01:18:36;;;;;;;5.50;3.60;;;;;;;5.50;100.00;102058.22;2072315;28;20042;-72
2022/10/20 01:20:13;;;;;;;8.68;3.65;;;;;;;5.48;100.00;102062.59;2072118;28;31737;-72
2022/10/20 01:21:32;;;;;;;12.32;3.75;;;;;;;5.47;100.00;102060.81;2071838;28;32194;-72
2022/10/20 01:22:57;;;;;;;11.02;3.65;;;;;;;5.48;100.00;102052.88;2079287;28;31919;-72
2022/10/20 01:24:28;;;;;;;8.70;3.47;;;;;;;5.54;100.00;102060.97;2075947;28;37240;-72
2022/10/20 01:26:23;;;;;;;10.68;4.38;;;;;;;5.51;100.00;102055.59;2072183;28;20093;-72
2022/10/20 01:27:35;;;;;;;12.40;3.58;;;;;;;5.46;100.00;102053.72;2057143;28;37036;-72
2022/10/20 01:29:13;;;;;;;8.23;3.83;;;;;;;5.44;100.00;102060.78;2079037;28;37757;-72
2022/10/20 01:30:20;;;;;;;8.65;3.60;;;;;;;5.47;100.00;102067.03;2070188;28;38799;-71
2022/10/20 01:31:44;;;;;;;10.05;3.78;;;;;;;5.50;100.00;102055.56;2071295;28;36686;-72
2022/10/20 01:33:14;;;;;;;8.40;3.70;;;;;;;5.43;100.00;102058.97;2079252;28;42280;-71
2022/10/20 01:35:09;;;;;;;8.65;3.40;;;;;;;5.46;100.00;102053.72;2073365;28;35898;-71
2022/10/20 01:36:36;;;;;;;7.03;3.58;;;;;;;5.38;100.00;102047.38;2078885;28;39457;-72
2022/10/20 01:37:52;;;;;;;8.95;3.67;;;;;;;5.32;100.00;102051.72;2079753;28;20037;-73
2022/10/20 01:39:03;;;;;;;9.65;4.13;;;;;;;5.28;100.00;102041.94;2074148;28;32066;-72
2022/10/20 01:40:41;;;;;;;10.55;4.25;;;;;;;5.24;100.00;102037.44;2079103;28;34404;-72
2022/10/20 01:42:19;;;;;;;8.65;3.58;;;;;;;5.24;100.00;102036.53;2072698;28;31853;-72
2022/10/20 01:43:24;;;;;;;8.05;4.28;;;;;;;5.21;100.00;102028.53;2074056;28;33584;-72
2022/10/20 01:44:29;;;;;;;8.27;4.30;;;;;;;5.16;100.00;102028.44;2078952;28;34300;-72
2022/10/20 01:45:35;;;;;;;10.25;4.22;;;;;;;5.16;100.00;102026.66;2078668;28;40776;-72
2022/10/20 01:46:41;;;;;;;10.63;4.60;;;;;;;5.21;100.00;102010.84;2079039;28;37003;-72
2022/10/20 01:47:49;;;;;;;12.73;4.65;;;;;;;5.26;100.00;102025.09;2079677;28;20761;-72
2022/10/20 01:48:53;;;;;;;6.43;4.25;;;;;;;5.26;100.00;102016.22;2078125;28;32992;-71
2022/10/20 01:49:56;;;;;;;14.15;4.90;;;;;;;5.29;100.00;102009.22;2071107;28;38277;-72
2022/10/20 01:51:01;;;;;;;10.65;4.72;;;;;;;5.32;100.00;102014.53;2078652;28;39191;-72
2022/10/20 01:52:03;;;;;;;8.48;4.90;;;;;;;5.41;100.00;102013.81;2078732;28;33907;-72
2022/10/20 01:53:06;;;;;;;7.80;3.97;;;;;;;5.34;100.00;102009.25;2078442;28;39933;-71
2022/10/20 01:54:26;;;;;;;7.10;4.45;;;;;;;5.37;100.00;102003.13;2079386;28;20050;-72
2022/10/20 01:55:29;;;;;;;9.02;3.80;;;;;;;5.32;100.00;101998.63;2079498;28;34087;-72
2022/10/20 01:57:15;;;;;;;8.38;4.60;;;;;;;5.39;100.00;102010.22;2077576;28;30105;-72
2022/10/20 01:58:52;;;;;;;9.27;4.72;;;;;;;5.37;100.00;102004.00;2054966;28;38777;-72
2022/10/20 02:00:09;;;;;;;7.40;4.30;;;;;;;5.34;100.00;101995.97;2067539;28;37144;-72
2022/10/20 02:01:49;;;;;;;9.38;4.57;;;;;;;5.30;100.00;101995.03;2080532;28;34276;-72
2022/10/20 02:03:53;;;;;;;10.30;4.25;;;;;;;5.38;100.00;101996.94;2069289;28;37339;-72
2022/10/20 02:05:25;;;;;;;9.77;4.22;;;;;;;5.39;100.00;101989.00;2077621;28;38727;-72
2022/10/20 02:06:48;;;;;;;8.95;4.32;;;;;;;5.39;100.00;101996.97;2080766;28;35356;-73
2022/10/20 02:07:53;;;;;;;9.05;4.50;;;;;;;5.39;100.00;101988.09;2081288;28;34417;-74
2022/10/20 02:08:59;;;;;;;5.78;4.40;;;;;;;5.35;100.00;101988.03;2079558;28;40175;-74
2022/10/20 02:10:23;;;;;;;10.18;4.75;;;;;;;5.33;100.00;101988.91;2081654;28;20081;-71
2022/10/20 02:11:41;;;;;;;8.55;4.25;;;;;;;5.32;100.00;101992.41;2076623;28;36040;-73
2022/10/20 02:12:49;;;;;;;7.55;4.30;;;;;;;5.34;100.00;101988.03;2080787;28;26496;-73
2022/10/20 02:13:55;;;;;;;7.30;4.22;;;;;;;5.33;100.00;101989.78;2080667;28;38238;-73
2022/10/20 02:14:58;;;;;;;9.55;4.60;;;;;;;5.32;100.00;101989.75;2080304;28;38086;-73
2022/10/20 02:16:06;;;;;;;9.95;4.97;;;;;;;5.31;100.00;101988.88;2079805;28;31135;-74
2022/10/20 02:17:14;;;;;;;6.97;4.45;;;;;;;5.24;100.00;101984.34;2080967;28;21156;-73
2022/10/20 02:18:23;;;;;;;11.27;4.72;;;;;;;5.28;100.00;101983.50;2080887;28;29404;-73
2022/10/20 02:19:33;;;;;;;11.18;4.68;;;;;;;5.28;100.00;101977.31;2079933;28;34308;-73
2022/10/20 02:20:35;;;;;;;7.72;5.22;;;;;;;5.30;100.00;101983.53;2080678;28;30868;-73
2022/10/20 02:21:37;;;;;;;9.25;5.03;;;;;;;5.30;100.00;101973.81;2078837;28;39567;-73
2022/10/20 02:22:42;;;;;;;10.85;4.63;;;;;;;5.37;100.00;101979.22;2072760;28;31044;-74
2022/10/20 02:23:48;;;;;;;10.05;4.90;;;;;;;5.32;100.00;101987.09;2080531;28;20048;-73
2022/10/20 02:24:52;;;;;;;7.32;4.85;;;;;;;5.26;100.00;101969.31;2080189;28;36255;-73
2022/10/20 02:25:58;;;;;;;9.13;4.93;;;;;;;5.22;100.00;101970.13;2079583;28;37765;-73
2022/10/20 02:27:26;;;;;;;7.82;4.72;;;;;;;5.17;100.00;101974.50;2080819;28;20875;-73
2022/10/20 02:28:29;;;;;;;7.35;4.45;;;;;;;5.16;100.00;101967.38;2080652;28;31803;-72
2022/10/20 02:29:40;;;;;;;12.05;5.00;;;;;;;5.14;100.00;101971.78;2080050;28;31482;-73
2022/10/20 02:30:44;;;;;;;11.48;5.00;;;;;;;5.19;100.00;101974.50;2080707;28;34657;-73
2022/10/20 02:31:46;;;;;;;9.18;4.57;;;;;;;5.18;100.00;101978.91;2079949;28;34538;-73
2022/10/20 02:32:51;;;;;;;7.97;5.13;;;;;;;5.18;100.00;101976.25;2080284;28;34969;-73
2022/10/20 02:33:56;;;;;;;9.50;5.32;;;;;;;5.21;100.00;101973.66;2079365;28;37784;-73
2022/10/20 02:34:58;;;;;;;14.60;5.40;;;;;;;5.22;100.00;101979.84;2080019;28;37054;-73
2022/10/20 02:36:05;;;;;;;7.65;5.30;;;;;;;5.19;100.00;101972.75;2078624;28;31707;-73
2022/10/20 02:37:07;;;;;;;13.10;5.20;;;;;;;5.21;100.00;101976.31;2072367;28;35388;-73
2022/10/20 02:38:08;;;;;;;7.95;5.20;;;;;;;5.16;100.00;101970.03;2072042;28;39565;-73
2022/10/20 02:39:11;;;;;;;9.25;4.60;;;;;;;5.13;100.00;101969.97;2072159;28;34478;-73
2022/10/20 02:40:15;;;;;;;10.43;5.70;;;;;;;5.14;100.00;101963.81;2072451;28;34855;-73
2022/10/20 02:41:16;;;;;;;9.88;5.68;;;;;;;5.10;100.00;101960.22;2072541;28;38453;-73
2022/10/20 02:42:18;;;;;;;13.27;5.38;;;;;;;5.09;100.00;101966.38;2079952;28;36199;-73
2022/10/20 02:43:20;;;;;;;8.68;5.60;;;;;;;5.14;100.00;101963.81;2080205;28;33206;-73
2022/10/20 02:44:22;;;;;;;11.00;5.68;;;;;;;5.09;100.00;101963.72;2072332;28;38671;-73
2022/10/20 02:45:23;;;;;;;10.07;5.70;;;;;;;5.13;100.00;101964.66;2072933;28;32219;-73
2022/10/20 02:46:26;;;;;;;9.77;5.95;;;;;;;5.09;100.00;101958.41;2071745;28;36612;-73
2022/10/20 02:47:28;;;;;;;10.38;5.75;;;;;;;5.13;100.00;101959.38;2072819;28;29391;-73
2022/10/20 02:48:29;;;;;;;8.75;6.15;;;;;;;5.09;100.00;101969.03;2071735;28;32059;-72
2022/10/20 02:49:31;;;;;;;9.13;6.38;;;;;;;5.04;100.00;101960.09;2072559;28;31610;-73
2022/10/20 02:50:33;;;;;;;8.48;5.90;;;;;;;5.01;100.00;101960.06;2066570;28;34536;-73
2022/10/20 02:51:35;;;;;;;9.85;6.35;;;;;;;5.03;100.00;101962.75;2072051;28;38029;-73
2022/10/20 02:52:37;;;;;;;11.60;6.30;;;;;;;5.02;100.00;101958.31;2072024;28;33017;-73
2022/10/20 02:53:39;;;;;;;9.77;6.45;;;;;;;5.04;100.00;101948.59;2080013;28;36136;-73
2022/10/20 02:54:40;;;;;;;9.93;6.20;;;;;;;5.04;100.00;101948.59;2079458;28;36540;-73
2022/10/20 02:55:42;;;;;;;12.35;6.63;;;;;;;5.04;100.00;101953.91;2072790;28;34505;-73
2022/10/20 02:56:44;;;;;;;11.55;6.65;;;;;;;5.01;100.00;101948.53;2072330;28;32119;-73
2022/10/20 02:57:45;;;;;;;14.50;6.50;;;;;;;5.03;100.00;101942.41;2072719;28;37062;-73
2022/10/20 02:58:48;;;;;;;10.82;6.65;;;;;;;4.98;100.00;101944.09;2072537;28;29677;-73
2022/10/20 02:59:50;;;;;;;9.95;6.95;;;;;;;5.01;100.00;101954.75;2072387;28;29999;-73
2022/10/20 03:00:51;;;;;;;10.35;7.18;;;;;;;5.01;100.00;101938.84;2072394;28;33038;-73
2022/10/20 03:01:55;;;;;;;11.85;7.05;;;;;;;5.04;100.00;101944.19;2072728;28;36328;-73
2022/10/20 03:02:57;;;;;;;11.32;6.68;;;;;;;5.01;100.00;101937.94;2072569;28;35635;-73
2022/10/20 03:03:59;;;;;;;11.38;7.30;;;;;;;5.01;100.00;101935.28;2072314;28;39128;-73
2022/10/20 03:05:01;;;;;;;11.07;6.65;;;;;;;5.03;100.00;101933.56;2072190;28;31263;-73
2022/10/20 03:06:13;;;;;;;8.52;6.60;;;;;;;5.01;100.00;101938.84;2072728;28;31085;-73
2022/10/20 03:07:15;;;;;;;12.55;7.05;;;;;;;5.00;100.00;101937.03;2079536;28;32043;-72
2022/10/20 03:08:17;;;;;;;11.68;7.35;;;;;;;5.01;100.00;101933.53;2079688;28;31922;-73
2022/10/20 03:09:19;;;;;;;12.40;7.32;;;;;;;4.96;100.00;101936.09;2071215;28;35061;-73
2022/10/20 03:10:21;;;;;;;15.80;7.30;;;;;;;4.99;100.00;101929.97;2072509;28;32690;-73
2022/10/20 03:11:23;;;;;;;10.82;6.93;;;;;;;4.96;100.00;101925.50;2072103;28;29409;-72
2022/10/20 03:12:24;;;;;;;11.85;6.97;;;;;;;5.01;100.00;101922.00;2072334;28;34259;-72
2022/10/20 03:13:28;;;;;;;17.08;7.47;;;;;;;5.01;100.00;101922.00;2072521;28;20164;-73
2022/10/20 03:14:35;;;;;;;8.48;7.03;;;;;;;5.04;100.00;101927.38;2081152;28;20054;-72
2022/10/20 03:15:37;;;;;;;12.90;7.15;;;;;;;5.03;100.00;101918.53;2079125;28;32430;-73
2022/10/20 03:16:38;;;;;;;13.07;6.38;;;;;;;5.04;100.00;101917.63;2072555;28;36050;-73
2022/10/20 03:17:40;;;;;;;9.48;6.78;;;;;;;5.02;100.00;101929.09;2071828;28;36208;-72
2022/10/20 03:18:42;;;;;;;11.88;6.53;;;;;;;4.98;100.00;101928.16;2072619;28;35315;-72
2022/10/20 03:19:44;;;;;;;9.93;6.60;;;;;;;4.97;100.00;101927.28;2072188;28;35239;-73
2022/10/20 03:20:49;;;;;;;10.43;6.78;;;;;;;4.91;100.00;101924.50;2071551;28;38389;-73
2022/10/20 03:21:50;;;;;;;10.15;6.68;;;;;;;4.92;100.00;101922.78;2072568;28;20076;-73
2022/10/20 03:22:52;;;;;;;13.18;6.75;;;;;;;4.93;100.00;101920.13;2072367;28;39645;-73
2022/10/20 03:23:55;;;;;;;10.65;6.50;;;;;;;4.91;100.00;101911.25;2080445;28;20245;-73
2022/10/20 03:24:56;;;;;;;9.45;6.72;;;;;;;4.90;100.00;101909.47;2080280;28;37895;-73
2022/10/20 03:26:04;;;;;;;11.82;6.47;;;;;;;4.90;100.00;101909.47;2072142;28;34479;-73
2022/10/20 03:27:06;;;;;;;13.02;6.50;;;;;;;4.91;100.00;101905.94;2073316;28;20881;-73
2022/10/20 03:28:08;;;;;;;12.48;6.57;;;;;;;4.88;100.00;101907.66;2072066;28;35316;-73
2022/10/20 03:29:09;;;;;;;12.57;6.80;;;;;;;4.89;100.00;101909.44;2072316;28;38311;-73
2022/10/20 03:30:13;;;;;;;8.50;6.25;;;;;;;4.89;100.00;101917.41;2072396;28;30772;-73
2022/10/20 03:31:15;;;;;;;10.27;6.80;;;;;;;4.87;100.00;101909.41;2072246;28;31179;-73
2022/10/20 03:32:16;;;;;;;10.07;6.90;;;;;;;4.85;100.00;101905.84;2072757;28;20038;-73
2022/10/20 03:33:18;;;;;;;10.77;6.63;;;;;;;4.82;100.00;101903.13;2072416;28;33629;-72
2022/10/20 03:34:22;;;;;;;9.98;6.78;;;;;;;4.84;100.00;101904.06;2071855;28;32850;-72
2022/10/20 03:35:24;;;;;;;8.02;6.15;;;;;;;4.85;100.00;101903.19;2072240;28;30138;-73
2022/10/20 03:36:26;;;;;;;10.85;6.75;;;;;;;4.84;100.00;101904.06;2071967;28;36020;-73
2022/10/20 03:37:30;;;;;;;11.25;6.90;;;;;;;4.83;100.00;101907.59;2073056;28;20049;-73
2022/10/20 03:38:34;;;;;;;13.48;6.60;;;;;;;4.82;100.00;101896.94;2079737;28;31844;-73
2022/10/20 03:39:35;;;;;;;12.77;7.63;;;;;;;4.81;100.00;101901.38;2079279;28;38098;-73
2022/10/20 03:40:37;;;;;;;10.18;6.40;;;;;;;4.85;100.00;101911.16;2072049;28;34330;-73
2022/10/20 03:41:39;;;;;;;11.35;6.90;;;;;;;4.82;100.00;101900.50;2072106;28;32474;-73
2022/10/20 03:42:40;;;;;;;10.52;7.05;;;;;;;4.80;100.00;101896.91;2072599;28;20045;-73
2022/10/20 03:43:42;;;;;;;10.93;7.20;;;;;;;4.78;100.00;101899.53;2072470;28;33097;-73
2022/10/20 03:44:44;;;;;;;13.43;6.63;;;;;;;4.78;100.00;101893.34;2072341;28;31957;-73
2022/10/20 03:45:48;;;;;;;9.88;6.43;;;;;;;4.77;100.00;101881.88;2072499;28;36051;-73
2022/10/20 03:46:50;;;;;;;10.27;6.60;;;;;;;4.73;100.00;101877.34;2071290;28;37666;-73
2022/10/20 03:47:52;;;;;;;8.75;6.65;;;;;;;4.75;100.00;101882.69;2072402;28;39444;-73
2022/10/20 03:48:56;;;;;;;12.00;7.65;;;;;;;4.72;100.00;101869.34;2072363;28;20384;-73
2022/10/20 03:49:57;;;;;;;10.15;6.93;;;;;;;4.75;100.00;101880.03;2080030;28;26044;-73
2022/10/20 03:51:01;;;;;;;11.68;6.88;;;;;;;4.71;100.00;101876.44;2078755;28;33900;-72
2022/10/20 03:52:05;;;;;;;10.48;6.40;;;;;;;4.71;100.00;101876.44;2072410;28;31151;-73
2022/10/20 03:53:11;;;;;;;11.65;7.05;;;;;;;4.73;100.00;101871.16;2071728;28;40068;-72
2022/10/20 03:54:12;;;;;;;10.85;6.85;;;;;;;4.72;100.00;101875.59;2072487;28;31207;-72
2022/10/20 03:55:17;;;;;;;10.93;7.00;;;;;;;4.73;100.00;101874.69;2071850;28;34107;-73
2022/10/20 03:56:21;;;;;;;13.18;7.25;;;;;;;4.75;100.00;101877.38;2072384;28;31104;-73
2022/10/20 03:57:23;;;;;;;12.10;6.97;;;;;;;4.74;100.00;101880.91;2071633;28;36386;-73
2022/10/20 03:58:27;;;;;;;14.38;7.25;;;;;;;4.74;100.00;101878.25;2071953;28;37964;-73
2022/10/20 03:59:28;;;;;;;10.52;6.80;;;;;;;4.72;100.00;101877.31;2071862;28;38335;-72
2022/10/20 04:00:31;;;;;;;13.32;6.43;;;;;;;4.72;100.00;101882.63;2072252;28;33341;-73
2022/10/20 04:01:33;;;;;;;12.85;7.78;;;;;;;4.72;100.00;101872.00;2072147;28;32325;-73
2022/10/20 04:02:44;;;;;;;10.18;6.85;;;;;;;4.74;100.00;101863.22;2079956;28;32223;-73
2022/10/20 04:03:48;;;;;;;9.50;6.53;;;;;;;4.73;100.00;101863.19;2079585;28;34702;-73
2022/10/20 04:04:50;;;;;;;10.70;7.00;;;;;;;4.69;100.00;101861.38;2078919;28;20050;-73
2022/10/20 04:05:52;;;;;;;10.48;7.22;;;;;;;4.66;100.00;101859.56;2079269;28;38061;-73
2022/10/20 04:06:54;;;;;;;13.50;6.85;;;;;;;4.68;100.00;101860.47;2079268;28;37554;-73
2022/10/20 04:07:55;;;;;;;12.13;7.20;;;;;;;4.67;100.00;101857.81;2071926;28;33467;-72
2022/10/20 04:08:57;;;;;;;10.98;6.90;;;;;;;4.68;100.00;101854.28;2072173;28;37494;-73
2022/10/20 04:10:02;;;;;;;11.23;6.85;;;;;;;4.75;100.00;101853.50;2072131;28;31703;-73
2022/10/20 04:11:04;;;;;;;12.27;7.47;;;;;;;4.71;100.00;101841.06;2071960;28;36576;-73
2022/10/20 04:12:06;;;;;;;14.15;6.68;;;;;;;4.71;100.00;101839.28;2079012;28;44059;-72
2022/10/20 04:13:10;;;;;;;11.45;6.72;;;;;;;4.71;100.00;101841.06;2079814;28;20204;-73
2022/10/20 04:14:12;;;;;;;10.73;6.53;;;;;;;4.76;100.00;101831.44;2072016;28;36535;-72
2022/10/20 04:15:13;;;;;;;9.50;6.70;;;;;;;4.79;100.00;101831.44;2079713;28;35117;-72
2022/10/20 04:16:15;;;;;;;7.82;6.50;;;;;;;4.72;100.00;101818.97;2079387;28;33015;-73
2022/10/20 04:17:17;;;;;;;10.05;6.68;;;;;;;4.71;100.00;101822.50;2072176;28;32742;-73
2022/10/20 04:18:19;;;;;;;9.98;6.78;;;;;;;4.68;100.00;101818.03;2072140;28;20042;-73
2022/10/20 04:19:21;;;;;;;9.65;7.00;;;;;;;4.71;100.00;101811.88;2072493;28;20053;-73
2022/10/20 04:20:23;;;;;;;8.18;6.70;;;;;;;4.73;100.00;101804.84;2071148;28;39150;-73
2022/10/20 04:21:25;;;;;;;10.55;7.00;;;;;;;4.70;100.00;101807.44;2070894;28;30743;-73
2022/10/20 04:22:27;;;;;;;11.27;7.20;;;;;;;4.71;100.00;101806.59;2071847;28;37773;-72
2022/10/20 04:23:28;;;;;;;9.73;7.13;;;;;;;4.71;100.00;101801.28;2072115;28;39260;-73
2022/10/20 04:24:30;;;;;;;12.85;6.88;;;;;;;4.73;100.00;101810.16;2072402;28;20043;-73
2022/10/20 04:25:32;;;;;;;12.00;7.03;;;;;;;4.75;100.00;101803.09;2072956;28;20038;-73
2022/10/20 04:26:34;;;;;;;10.15;6.85;;;;;;;4.71;100.00;101803.94;2071862;28;32263;-73
2022/10/20 04:27:36;;;;;;;10.32;6.80;;;;;;;4.74;100.00;101806.63;2072147;28;20049;-73
2022/10/20 04:28:38;;;;;;;8.68;6.63;;;;;;;4.69;100.00;101797.72;2078970;28;35457;-73
2022/10/20 04:29:40;;;;;;;14.10;7.05;;;;;;;4.71;100.00;101803.94;2079232;28;36702;-73
2022/10/20 04:30:42;;;;;;;8.55;6.07;;;;;;;4.76;100.00;101807.56;2071924;28;32474;-73
2022/10/20 04:31:44;;;;;;;13.30;6.70;;;;;;;4.73;100.00;101794.22;2080105;28;30320;-73
2022/10/20 04:32:47;;;;;;;10.82;6.97;;;;;;;4.73;100.00;101799.53;2078993;28;31022;-73
2022/10/20 04:33:48;;;;;;;12.38;6.65;;;;;;;4.76;100.00;101794.28;2072172;28;31294;-73
2022/10/20 04:34:52;;;;;;;8.02;6.18;;;;;;;4.79;100.00;101804.91;2071381;28;39007;-73
2022/10/20 04:36:03;;;;;;;12.98;7.00;;;;;;;4.77;100.00;101801.34;2072335;28;20054;-73
2022/10/20 04:37:05;;;;;;;9.27;7.28;;;;;;;4.81;100.00;101794.34;2079554;28;34478;-73
2022/10/20 04:38:06;;;;;;;9.70;6.22;;;;;;;4.80;100.00;101793.44;2078864;28;32076;-73
2022/10/20 04:39:08;;;;;;;11.35;6.80;;;;;;;4.79;100.00;101804.91;2071910;28;32317;-71
2022/10/20 04:40:10;;;;;;;12.57;7.28;;;;;;;4.81;100.00;101803.22;2071972;28;40136;-73
2022/10/20 04:41:14;;;;;;;11.65;6.78;;;;;;;4.81;100.00;101795.25;2072351;28;20050;-73
2022/10/20 04:42:19;;;;;;;10.30;7.15;;;;;;;4.84;100.00;101803.22;2071883;28;34349;-72
2022/10/20 04:43:21;;;;;;;10.70;6.93;;;;;;;4.87;100.00;101797.97;2078894;28;36006;-72
2022/10/20 04:44:23;;;;;;;13.77;7.30;;;;;;;4.86;100.00;101790.88;2079485;28;34307;-72
2022/10/20 04:45:27;;;;;;;13.23;7.05;;;;;;;4.86;100.00;101795.28;2079355;28;35036;-73
2022/10/20 04:46:28;;;;;;;9.57;6.20;;;;;;;4.85;100.00;101789.09;2079022;28;21048;-73
2022/10/20 04:47:32;;;;;;;10.80;7.00;;;;;;;4.88;100.00;101782.94;2072089;28;35549;-73
2022/10/20 04:48:36;;;;;;;13.52;7.07;;;;;;;4.88;100.00;101790.91;2071624;28;36125;-73
2022/10/20 04:49:39;;;;;;;10.40;7.38;;;;;;;4.84;100.00;101786.44;2072454;28;20034;-73
2022/10/20 04:50:41;;;;;;;8.95;6.97;;;;;;;4.86;100.00;101790.88;2070985;28;32457;-73
2022/10/20 04:51:43;;;;;;;8.23;6.65;;;;;;;4.86;100.00;101788.22;2071219;28;30304;-73
2022/10/20 04:52:47;;;;;;;12.07;7.00;;;;;;;4.84;100.00;101795.28;2071685;28;34871;-72
2022/10/20 04:53:49;;;;;;;10.02;7.00;;;;;;;4.89;100.00;101779.44;2071757;28;40650;-72
2022/10/20 04:54:50;;;;;;;12.18;7.03;;;;;;;4.95;100.00;101779.50;2071680;28;38670;-73
2022/10/20 04:56:00;;;;;;;10.68;7.03;;;;;;;4.94;100.00;101775.09;2071759;28;32898;-72
2022/10/20 04:57:04;;;;;;;11.07;6.95;;;;;;;4.97;100.00;101757.44;2072078;28;31287;-73
2022/10/20 04:58:06;;;;;;;10.93;6.95;;;;;;;4.94;100.00;101757.38;2079571;28;37221;-72
2022/10/20 04:59:10;;;;;;;9.52;6.63;;;;;;;4.97;100.00;101756.53;2079900;28;31810;-73
2022/10/20 05:00:14;;;;;;;10.90;6.47;;;;;;;5.01;100.00;101747.75;2080052;28;33482;-73
2022/10/20 05:01:19;;;;;;;9.38;7.22;;;;;;;5.01;100.00;101746.84;2079714;28;34566;-73
2022/10/20 05:02:23;;;;;;;12.13;7.13;;;;;;;4.98;100.00;101742.41;2079816;28;36029;-73
2022/10/20 05:03:25;;;;;;;9.50;6.60;;;;;;;5.03;100.00;101723.88;2080314;28;20049;-73
2022/10/20 05:04:26;;;;;;;12.52;6.88;;;;;;;5.06;100.00;101739.84;2080457;28;37769;-73
2022/10/20 05:05:30;;;;;;;11.32;6.97;;;;;;;5.05;100.00;101732.75;2087348;28;32975;-73
2022/10/20 05:06:32;;;;;;;11.43;6.60;;;;;;;5.08;100.00;101731.03;2087238;28;33245;-73
2022/10/20 05:07:36;;;;;;;11.18;6.50;;;;;;;5.01;100.00;101729.19;2079461;28;36298;-73